Meteo Giornale » Osservazioni meteo Italia » Bari-Palese Macchie

ore: 17:20 - Osservazioni Meteo Bari-Palese Macchie
Lat. 41° 8' N Lon. 16° 47' E Alt. 34 metri s.l.m.

sereno Europe/Rome

15 °C

Sereno

Temp. 24 Ore

8 °C

19 °C

Nord

18.5 Km/h

Dew point 11 °C

Umidità 76 %

Visibilità  10 Km

Il sole sorge alle ore 05:43

Il sole tramonta alle ore 18:13

Data e Ora Cielo e Fenomeni T °C DP °C Um. % Pres. hPa Vis. km Vento km/h
Oggi h: 17:20 sereno Sereno 15 11 76 1015 10 N 18.5
Oggi h: 16:50 sereno Sereno 15 11 76 1015 10 N 20.3
Oggi h: 16:20 sereno Sereno 16 10 67 1015 10 N 24
Oggi h: 15:50 sereno Sereno 16 10 67 1015 10 N 22.2
Oggi h: 15:20 sereno Sereno 17 9 59 1015 10 N 24
Oggi h: 14:50 sereno Sereno 16 9 63 1015 10 N 29.6
Oggi h: 14:20 poco_nuvoloso Poco Nuvoloso 17 10 63 1015 10 N 25.9
Oggi h: 13:50 poco_nuvoloso Poco Nuvoloso 17 10 63 1015 10 N 25.9
Oggi h: 13:20 poco_nuvoloso Poco Nuvoloso 17 10 63 1016 10 N 25.9
Oggi h: 12:50 poco_nuvoloso Poco Nuvoloso 17 10 63 1016 10 N 25.9
Oggi h: 12:20 poco_nuvoloso Poco Nuvoloso 17 9 59 1016 10 N/NO 31.5
Oggi h: 11:50 poco_nuvoloso Poco Nuvoloso 18 10 59 1015 10 N/NO 31.5
Oggi h: 11:20 poco_nuvoloso Poco Nuvoloso 18 10 59 1016 10 N/NO 33.3
Oggi h: 10:50 sereno Sereno 18 10 59 1015 10 N/NO 33.3
Oggi h: 10:20 sereno Sereno 19 8 48 1015 10 O/NO 33.3
Oggi h: 09:50 sereno Sereno 19 8 48 1015 10 O/NO 35.2
Oggi h: 09:20 sereno Sereno 19 8 48 1015 10 O/NO 33.3
Oggi h: 08:50 sereno Sereno 18 7 48 1015 10 O/NO 33.3
Oggi h: 08:20 sereno Sereno 18 8 51 1015 10 O/NO 24
Oggi h: 07:50 sereno Sereno 16 8 58 1015 8 O 14.8
Oggi h: 07:20 sereno Sereno 13 5 58 1016 8 SO 11.1
Oggi h: 06:50 sereno Sereno 11 4 61 1016 8 SO 11.1
Oggi h: 06:20 sereno Sereno 12 5 62 1016 8 O 14.8
Oggi h: 05:50 sereno Sereno 12 5 62 1016 7 O 14.8
Oggi h: 05:20 sereno Sereno 8 5 81 1016 7 O 13
Oggi h: 04:50 sereno Sereno 8 5 81 1016 7 N/NO 7.4
Oggi h: 04:20 sereno Sereno 8 5 81 1016 7 N 5.5
Oggi h: 03:50 sereno Sereno 9 6 81 1016 7 N 3.7
Oggi h: 03:20 sereno Sereno 9 6 81 1016 7 N 5.5
Oggi h: 03:50 sereno Sereno 9 6 81 1016 7 N 3.7
Oggi h: 03:20 sereno Sereno 10 7 81 1017 7 N 5.5
Oggi h: 01:50 sereno Sereno 10 8 87 1017 7 N 5.5
Oggi h: 01:20 sereno Sereno 11 8 81 1017 7 N 5.5
Oggi h: 00:50 sereno Sereno 11 8 81 1018 7 N/NO 7.4
Oggi h: 00:20 sereno Sereno 10 6 76 1018 7 N/NO 7.4
Ieri h: 23:50 sereno Sereno 9 7 87 1017 7 N 1.8
Ieri h: 23:20 sereno Sereno 9 7 87 1017 7 N 5.5
Ieri h: 22:50 sereno Sereno 10 8 87 1018 7 N 5.5
Ieri h: 22:20 sereno Sereno 10 8 87 1018 7 N 3.7
Ieri h: 21:50 sereno Sereno 11 9 87 1018 7 N 3.7
Ieri h: 21:20 foschia Foschia 10 9 93 1018 5 N 1.8
Ieri h: 20:50 foschia Foschia 11 10 93 1018 5 N 1.8
Ieri h: 20:20 foschia Foschia 11 10 93 1018 5 N 3.7
Ieri h: 19:50 foschia Foschia 12 10 87 1018 5 N 1.8
Ieri h: 19:20 foschia Foschia 12 10 87 1019 5 N 5.5
Ieri h: 18:50 foschia Foschia 13 11 87 1018 5 N 5.5
Ieri h: 18:20 foschia Foschia 14 11 82 1019 5 N 5.5
Ieri h: 17:50 sereno Sereno 14 11 82 1019 7 N 5.5